Time;durP1;ratioP1;P1;durP2;ratioP2;P2;SDS_P1;SDS_P2;PMS_P1;PMS_P2;Temp;Humidity;BMP_temperature;BMP_pressure;BME280_temperature;BME280_humidity;BME280_pressure;Samples;Min_cycle;Max_cycle;Signal;HPM_P1;HPM_P2
2022/02/21 00:01:50;;;;;;;;;18.75;15.50;;;;;;;;5043336;28;51202;-55
2022/02/21 00:04:35;;;;;;;;;21.75;15.00;;;;;;;;5048810;28;51070;-56
2022/02/21 00:07:19;;;;;;;;;19.00;15.50;;;;;;;;5042077;28;51550;-55
2022/02/21 00:10:04;;;;;;;;;17.25;14.00;;;;;;;;5046199;28;51132;-56
2022/02/21 00:12:48;;;;;;;;;19.25;17.50;;;;;;;;5042444;28;51543;-57
2022/02/21 00:15:33;;;;;;;;;18.00;14.25;;;;;;;;5048499;28;51140;-55
2022/02/21 00:18:18;;;;;;;;;22.25;18.25;;;;;;;;5053745;28;51199;-55
2022/02/21 00:21:02;;;;;;;;;23.75;17.25;;;;;;;;5050333;28;51844;-56
2022/02/21 00:23:47;;;;;;;;;22.00;16.50;;;;;;;;5046164;28;51153;-54
2022/02/21 00:26:31;;;;;;;;;18.50;15.00;;;;;;;;5046779;28;51370;-55
2022/02/21 00:29:15;;;;;;;;;18.25;15.50;;;;;;;;5055154;28;51134;-55
2022/02/21 00:32:00;;;;;;;;;18.00;16.25;;;;;;;;5046440;28;51091;-52
2022/02/21 00:34:44;;;;;;;;;14.50;13.00;;;;;;;;5052010;28;51199;-54
2022/02/21 00:37:29;;;;;;;;;23.25;18.25;;;;;;;;5047720;28;51549;-55
2022/02/21 00:40:13;;;;;;;;;19.00;17.00;;;;;;;;5048291;28;51612;-52
2022/02/21 00:42:58;;;;;;;;;17.00;15.25;;;;;;;;5041850;28;51144;-58
2022/02/21 00:45:42;;;;;;;;;30.25;19.75;;;;;;;;5043476;28;51005;-51
2022/02/21 00:48:28;;;;;;;;;17.75;14.50;;;;;;;;5042196;28;51452;-56
2022/02/21 00:51:12;;;;;;;;;22.25;15.75;;;;;;;;5042036;28;51162;-54
2022/02/21 00:53:57;;;;;;;;;23.50;19.25;;;;;;;;5047024;28;51092;-54
2022/02/21 00:56:41;;;;;;;;;20.75;16.75;;;;;;;;5044693;28;51945;-56
2022/02/21 00:59:25;;;;;;;;;24.00;17.25;;;;;;;;5048006;28;51043;-54
2022/02/21 01:02:10;;;;;;;;;17.00;15.75;;;;;;;;5043695;28;51032;-55
2022/02/21 01:04:54;;;;;;;;;21.00;17.25;;;;;;;;5042094;28;51113;-53
2022/02/21 01:07:39;;;;;;;;;17.50;16.25;;;;;;;;5054969;28;51392;-55
2022/02/21 01:10:23;;;;;;;;;21.75;17.00;;;;;;;;5045548;28;51509;-56
2022/02/21 01:13:08;;;;;;;;;21.25;15.75;;;;;;;;5044556;28;51506;-52
2022/02/21 01:15:53;;;;;;;;;19.75;17.75;;;;;;;;5042564;28;51277;-56
2022/02/21 01:18:37;;;;;;;;;22.75;15.25;;;;;;;;5059235;28;51111;-54
2022/02/21 01:21:22;;;;;;;;;21.25;17.00;;;;;;;;5042093;28;51605;-55
2022/02/21 01:24:06;;;;;;;;;20.75;15.25;;;;;;;;5045050;28;51163;-54
2022/02/21 01:26:51;;;;;;;;;20.50;16.00;;;;;;;;5041618;28;51097;-56
2022/02/21 01:29:35;;;;;;;;;20.75;15.50;;;;;;;;5049164;28;51121;-57
2022/02/21 01:32:19;;;;;;;;;22.25;18.00;;;;;;;;5045905;28;52576;-54
2022/02/21 01:35:05;;;;;;;;;20.75;16.50;;;;;;;;5047253;28;51578;-55
2022/02/21 01:37:49;;;;;;;;;22.00;17.50;;;;;;;;5044739;28;51142;-55
2022/02/21 01:40:33;;;;;;;;;24.50;20.25;;;;;;;;5040666;28;51064;-51
2022/02/21 01:43:18;;;;;;;;;18.75;16.00;;;;;;;;5055862;28;51056;-58
2022/02/21 01:46:02;;;;;;;;;25.75;18.75;;;;;;;;5041512;28;51147;-55
2022/02/21 01:48:47;;;;;;;;;22.50;17.25;;;;;;;;5041045;28;51660;-56
2022/02/21 01:51:32;;;;;;;;;25.00;19.00;;;;;;;;5046059;28;51584;-50
2022/02/21 01:54:16;;;;;;;;;18.75;18.75;;;;;;;;5042815;28;51183;-57
2022/02/21 01:57:01;;;;;;;;;23.00;21.25;;;;;;;;5040621;28;51029;-57
2022/02/21 01:59:45;;;;;;;;;29.75;22.75;;;;;;;;5043176;28;51174;-54
2022/02/21 02:02:30;;;;;;;;;23.75;22.25;;;;;;;;5044793;28;51342;-55
2022/02/21 02:05:15;;;;;;;;;13.50;12.75;;;;;;;;5051561;28;51103;-53
2022/02/21 02:07:59;;;;;;;;;26.00;19.50;;;;;;;;5046390;28;51112;-55
2022/02/21 02:10:43;;;;;;;;;29.00;22.00;;;;;;;;5042630;28;51541;-56
2022/02/21 02:13:28;;;;;;;;;29.50;21.50;;;;;;;;5046170;28;51166;-54
2022/02/21 02:16:12;;;;;;;;;26.50;22.50;;;;;;;;5042716;28;51434;-57
2022/02/21 02:18:56;;;;;;;;;28.00;22.00;;;;;;;;5047917;28;51321;-56
2022/02/21 02:21:41;;;;;;;;;27.50;22.50;;;;;;;;5041077;28;51082;-55
2022/02/21 02:24:25;;;;;;;;;26.50;21.50;;;;;;;;5043956;28;51215;-56
2022/02/21 02:27:10;;;;;;;;;26.25;20.25;;;;;;;;5056126;28;51489;-57
2022/02/21 02:29:55;;;;;;;;;25.00;20.75;;;;;;;;5043294;28;51127;-57
2022/02/21 02:32:39;;;;;;;;;23.75;22.25;;;;;;;;5049518;28;51239;-55
2022/02/21 02:35:24;;;;;;;;;27.00;20.50;;;;;;;;5040533;28;51096;-54
2022/02/21 02:38:08;;;;;;;;;23.25;19.00;;;;;;;;5055736;28;51122;-56
2022/02/21 02:40:53;;;;;;;;;22.25;20.75;;;;;;;;5040798;28;51443;-54
2022/02/21 02:43:38;;;;;;;;;24.75;21.25;;;;;;;;5041097;28;51142;-54
2022/02/21 02:46:22;;;;;;;;;28.50;19.50;;;;;;;;5040944;28;51071;-53
2022/02/21 02:49:06;;;;;;;;;24.25;21.00;;;;;;;;5039450;28;51104;-50
2022/02/21 02:51:51;;;;;;;;;26.00;19.75;;;;;;;;5040837;28;51707;-57
2022/02/21 02:54:35;;;;;;;;;19.50;19.00;;;;;;;;5040408;28;51100;-58
2022/02/21 02:57:20;;;;;;;;;25.75;20.75;;;;;;;;5040504;28;51113;-53
2022/02/21 03:00:04;;;;;;;;;25.00;22.00;;;;;;;;5044289;28;51142;-57
2022/02/21 03:02:49;;;;;;;;;24.75;22.00;;;;;;;;5041550;28;51606;-58
2022/02/21 03:05:33;;;;;;;;;21.75;18.25;;;;;;;;5043585;28;51523;-56
2022/02/21 03:08:17;;;;;;;;;22.00;19.25;;;;;;;;5041988;28;51067;-56
2022/02/21 03:11:02;;;;;;;;;25.25;21.25;;;;;;;;5049739;28;51200;-56
2022/02/21 03:13:46;;;;;;;;;23.00;18.25;;;;;;;;5039217;28;51554;-54
2022/02/21 03:16:30;;;;;;;;;24.50;23.75;;;;;;;;5045552;28;51163;-54
2022/02/21 03:19:15;;;;;;;;;26.75;22.25;;;;;;;;5040620;28;51498;-54
2022/02/21 03:22:01;;;;;;;;;25.50;22.25;;;;;;;;5040439;28;51119;-57
2022/02/21 03:24:45;;;;;;;;;27.50;21.75;;;;;;;;5040087;28;51217;-51
2022/02/21 03:27:29;;;;;;;;;23.75;20.50;;;;;;;;5049811;28;51291;-54
2022/02/21 03:30:14;;;;;;;;;23.25;20.00;;;;;;;;5046504;28;51228;-56
2022/02/21 03:33:00;;;;;;;;;23.75;21.50;;;;;;;;5041224;28;51159;-54
2022/02/21 03:35:44;;;;;;;;;22.25;21.50;;;;;;;;5045484;28;51284;-52
2022/02/21 03:38:28;;;;;;;;;26.50;23.00;;;;;;;;5045464;28;51172;-56
2022/02/21 03:41:13;;;;;;;;;24.50;20.00;;;;;;;;5058928;28;51145;-53
2022/02/21 03:43:57;;;;;;;;;23.50;21.00;;;;;;;;5052577;28;50978;-56
2022/02/21 03:46:43;;;;;;;;;25.50;21.25;;;;;;;;5059466;28;51166;-57
2022/02/21 03:49:27;;;;;;;;;22.50;20.75;;;;;;;;5048200;28;51461;-54
2022/02/21 03:52:11;;;;;;;;;22.00;20.50;;;;;;;;5039275;28;51115;-55
2022/02/21 03:54:56;;;;;;;;;20.25;16.75;;;;;;;;5046072;28;52236;-55
2022/02/21 03:57:40;;;;;;;;;25.25;22.25;;;;;;;;5049984;28;51121;-54
2022/02/21 04:00:25;;;;;;;;;24.50;23.25;;;;;;;;5046008;28;50985;-53
2022/02/21 04:03:09;;;;;;;;;26.25;20.75;;;;;;;;5043771;28;51113;-52
2022/02/21 04:05:53;;;;;;;;;28.00;19.00;;;;;;;;5043998;28;51471;-57
2022/02/21 04:08:38;;;;;;;;;14.00;14.00;;;;;;;;5045327;28;51146;-56
2022/02/21 04:11:23;;;;;;;;;24.75;19.50;;;;;;;;5049818;28;51162;-54
2022/02/21 04:14:07;;;;;;;;;22.50;21.00;;;;;;;;5044321;28;51516;-54
2022/02/21 04:16:52;;;;;;;;;25.00;19.50;;;;;;;;5047267;28;51085;-53
2022/02/21 04:19:36;;;;;;;;;21.75;20.00;;;;;;;;5045487;28;51500;-57
2022/02/21 04:22:20;;;;;;;;;25.75;18.50;;;;;;;;5043574;28;51094;-53
2022/02/21 04:25:09;;;;;;;;;21.00;19.25;;;;;;;;5044654;28;51523;-53
2022/02/21 04:27:54;;;;;;;;;25.50;22.00;;;;;;;;5043779;28;51287;-49
2022/02/21 04:30:38;;;;;;;;;22.75;21.25;;;;;;;;5054692;28;51525;-57
2022/02/21 04:33:22;;;;;;;;;29.75;22.50;;;;;;;;5042433;28;51167;-54
2022/02/21 04:36:07;;;;;;;;;28.75;23.25;;;;;;;;5049012;28;51030;-55
2022/02/21 04:38:51;;;;;;;;;24.00;19.25;;;;;;;;5050240;28;51385;-53
2022/02/21 04:41:36;;;;;;;;;25.25;20.75;;;;;;;;5049894;28;51067;-55
2022/02/21 04:44:20;;;;;;;;;24.50;19.50;;;;;;;;5045119;28;51212;-54
2022/02/21 04:47:05;;;;;;;;;24.25;22.50;;;;;;;;5045508;28;51051;-55
2022/02/21 04:49:49;;;;;;;;;25.50;21.75;;;;;;;;5045021;28;51239;-54
2022/02/21 04:52:34;;;;;;;;;24.75;20.25;;;;;;;;5045781;28;51120;-54
2022/02/21 04:55:19;;;;;;;;;21.25;20.25;;;;;;;;5048407;28;51625;-56
2022/02/21 04:58:03;;;;;;;;;25.75;22.00;;;;;;;;5045791;28;51090;-54
2022/02/21 05:00:48;;;;;;;;;30.25;24.25;;;;;;;;5045228;28;51119;-53
2022/02/21 05:03:32;;;;;;;;;32.75;28.75;;;;;;;;5047062;28;51120;-54
2022/02/21 05:06:16;;;;;;;;;42.25;28.50;;;;;;;;5042681;28;51162;-52
2022/02/21 05:09:01;;;;;;;;;25.50;22.25;;;;;;;;5048890;28;51616;-54
2022/02/21 05:11:45;;;;;;;;;33.00;25.75;;;;;;;;5047695;28;51108;-57
2022/02/21 05:14:30;;;;;;;;;35.00;30.25;;;;;;;;5046589;28;51566;-56
2022/02/21 05:17:14;;;;;;;;;27.25;23.50;;;;;;;;5041984;28;51231;-54
2022/02/21 05:19:59;;;;;;;;;29.75;25.75;;;;;;;;5040903;28;51045;-56
2022/02/21 05:22:43;;;;;;;;;30.75;23.50;;;;;;;;5045222;28;51100;-52
2022/02/21 05:25:28;;;;;;;;;37.00;26.50;;;;;;;;5046348;28;51107;-54
2022/02/21 05:28:12;;;;;;;;;42.25;31.50;;;;;;;;5040909;28;51126;-54
2022/02/21 05:30:56;;;;;;;;;64.00;49.25;;;;;;;;5044402;28;51017;-53
2022/02/21 05:33:41;;;;;;;;;41.50;30.00;;;;;;;;5040910;28;51615;-56
2022/02/21 05:36:25;;;;;;;;;45.25;36.00;;;;;;;;5045063;28;51241;-56
2022/02/21 05:39:09;;;;;;;;;43.25;35.00;;;;;;;;5041793;28;51524;-55
2022/02/21 05:41:54;;;;;;;;;38.25;33.00;;;;;;;;5048225;28;51142;-57
2022/02/21 05:44:38;;;;;;;;;34.50;29.75;;;;;;;;5048031;28;51605;-56
2022/02/21 05:47:23;;;;;;;;;37.75;32.25;;;;;;;;5045091;28;51276;-55
2022/02/21 05:50:07;;;;;;;;;48.00;38.25;;;;;;;;5044277;28;51115;-54
2022/02/21 05:52:52;;;;;;;;;55.00;40.00;;;;;;;;5045518;28;51086;-55
2022/02/21 05:55:36;;;;;;;;;53.25;40.00;;;;;;;;5048720;28;51418;-57
2022/02/21 05:58:20;;;;;;;;;46.25;36.25;;;;;;;;5043661;28;51641;-56
2022/02/21 06:01:05;;;;;;;;;42.75;33.25;;;;;;;;5047538;28;51185;-54
2022/02/21 06:03:49;;;;;;;;;40.75;34.00;;;;;;;;5047142;28;51550;-52
2022/02/21 06:06:34;;;;;;;;;32.00;26.75;;;;;;;;5043354;28;51087;-57
2022/02/21 06:09:18;;;;;;;;;32.25;30.25;;;;;;;;5038561;28;51588;-57
2022/02/21 06:12:03;;;;;;;;;36.50;30.75;;;;;;;;5043063;28;51068;-55
2022/02/21 06:14:47;;;;;;;;;37.50;30.75;;;;;;;;5046809;28;51240;-52
2022/02/21 06:17:32;;;;;;;;;43.75;33.25;;;;;;;;5048811;28;51329;-54
2022/02/21 06:20:16;;;;;;;;;50.25;39.50;;;;;;;;5041518;28;51135;-55
2022/02/21 06:23:01;;;;;;;;;45.00;35.50;;;;;;;;5047332;28;51069;-56
2022/02/21 06:25:46;;;;;;;;;38.50;31.25;;;;;;;;5042930;28;51135;-51
2022/02/21 06:28:30;;;;;;;;;49.00;39.00;;;;;;;;5053964;28;51498;-54
2022/02/21 06:31:14;;;;;;;;;51.75;42.50;;;;;;;;5049158;28;51185;-53
2022/02/21 06:33:59;;;;;;;;;50.50;41.25;;;;;;;;5048281;28;51653;-55
2022/02/21 06:36:43;;;;;;;;;54.75;41.25;;;;;;;;5040729;28;51139;-54
2022/02/21 06:39:27;;;;;;;;;65.25;49.50;;;;;;;;5050042;28;51100;-53
2022/02/21 06:42:12;;;;;;;;;60.75;45.75;;;;;;;;5044711;28;51186;-52
2022/02/21 06:44:56;;;;;;;;;67.00;51.25;;;;;;;;5043189;28;52549;-51
2022/02/21 06:47:41;;;;;;;;;69.50;52.75;;;;;;;;5031745;28;51092;-53
2022/02/21 06:50:26;;;;;;;;;65.00;51.75;;;;;;;;5041795;28;51206;-55
2022/02/21 06:53:10;;;;;;;;;67.75;55.00;;;;;;;;5042512;28;51224;-58
2022/02/21 06:55:54;;;;;;;;;69.75;53.00;;;;;;;;5042469;28;51669;-55
2022/02/21 06:58:38;;;;;;;;;66.25;51.00;;;;;;;;5038839;28;51641;-54
2022/02/21 07:01:23;;;;;;;;;63.75;50.25;;;;;;;;5044046;28;51137;-56
2022/02/21 07:04:07;;;;;;;;;62.75;46.75;;;;;;;;5049052;28;51498;-52
2022/02/21 07:06:52;;;;;;;;;66.50;50.25;;;;;;;;5043129;28;51097;-57
2022/02/21 07:09:36;;;;;;;;;63.75;50.75;;;;;;;;5039272;28;51106;-53
2022/02/21 07:12:21;;;;;;;;;61.00;49.00;;;;;;;;5039044;28;51173;-52
2022/02/21 07:15:05;;;;;;;;;64.00;48.50;;;;;;;;5041970;28;51292;-54
2022/02/21 07:17:50;;;;;;;;;62.25;48.25;;;;;;;;5041643;28;51083;-55
2022/02/21 07:20:34;;;;;;;;;63.75;49.50;;;;;;;;5043891;28;51112;-53
2022/02/21 07:23:18;;;;;;;;;61.75;47.50;;;;;;;;5045895;28;51148;-56
2022/02/21 07:26:04;;;;;;;;;60.50;45.50;;;;;;;;5050314;28;51161;-55
2022/02/21 07:28:48;;;;;;;;;61.50;48.50;;;;;;;;5044703;28;51043;-56
2022/02/21 07:31:33;;;;;;;;;59.50;46.50;;;;;;;;5056859;28;52367;-55
2022/02/21 07:34:17;;;;;;;;;67.50;50.25;;;;;;;;5042041;28;51065;-55
2022/02/21 07:37:01;;;;;;;;;66.00;50.50;;;;;;;;5049231;28;51052;-54
2022/02/21 07:39:46;;;;;;;;;64.50;50.50;;;;;;;;5050343;28;51250;-54
2022/02/21 07:42:30;;;;;;;;;66.75;50.50;;;;;;;;5046687;28;51245;-56
2022/02/21 07:45:15;;;;;;;;;61.00;46.75;;;;;;;;5042578;28;51051;-53
2022/02/21 07:48:01;;;;;;;;;60.50;45.75;;;;;;;;5044226;28;51754;-53
2022/02/21 07:50:47;;;;;;;;;71.50;55.75;;;;;;;;5045077;28;51173;-55
2022/02/21 07:53:31;;;;;;;;;58.50;45.50;;;;;;;;5062611;28;51000;-53
2022/02/21 07:56:15;;;;;;;;;60.00;46.00;;;;;;;;5062398;28;51359;-57
2022/02/21 07:59:00;;;;;;;;;57.50;44.50;;;;;;;;5062042;28;51112;-59
2022/02/21 08:01:44;;;;;;;;;52.00;41.25;;;;;;;;5046294;28;51135;-56
2022/02/21 08:04:29;;;;;;;;;56.00;42.00;;;;;;;;5044986;28;51044;-57
2022/02/21 08:07:13;;;;;;;;;51.00;42.50;;;;;;;;5054658;28;51235;-51
2022/02/21 08:09:58;;;;;;;;;46.50;37.75;;;;;;;;5044496;28;51186;-54
2022/02/21 08:12:42;;;;;;;;;46.25;37.00;;;;;;;;5042228;28;51295;-54
2022/02/21 08:15:26;;;;;;;;;49.25;34.75;;;;;;;;5048103;28;51234;-57
2022/02/21 08:18:10;;;;;;;;;49.25;39.25;;;;;;;;5047727;28;51120;-52
2022/02/21 08:20:59;;;;;;;;;50.00;40.25;;;;;;;;5043927;28;51136;-53
2022/02/21 08:23:43;;;;;;;;;43.25;35.25;;;;;;;;5047083;28;51152;-55
2022/02/21 08:26:29;;;;;;;;;52.75;40.75;;;;;;;;5050291;28;52081;-56
2022/02/21 08:29:13;;;;;;;;;48.25;36.00;;;;;;;;5051344;28;51291;-51
2022/02/21 08:31:57;;;;;;;;;51.00;39.25;;;;;;;;5057227;28;51365;-54
2022/02/21 08:34:42;;;;;;;;;49.25;38.50;;;;;;;;5045837;28;51374;-57
2022/02/21 08:37:26;;;;;;;;;46.50;37.00;;;;;;;;5051742;28;51677;-55
2022/02/21 08:40:12;;;;;;;;;26.25;26.25;;;;;;;;5057043;28;51104;-53
2022/02/21 08:42:56;;;;;;;;;39.50;34.00;;;;;;;;5050411;28;51006;-58
2022/02/21 08:45:41;;;;;;;;;39.00;32.00;;;;;;;;5061157;28;51579;-54
2022/02/21 08:48:25;;;;;;;;;34.75;31.75;;;;;;;;5050849;28;51147;-58
2022/02/21 08:51:10;;;;;;;;;35.25;28.50;;;;;;;;5055047;28;51055;-54
2022/02/21 08:53:56;;;;;;;;;26.50;21.25;;;;;;;;5041317;28;51002;-49
2022/02/21 08:56:40;;;;;;;;;24.50;21.00;;;;;;;;5057775;28;51459;-52
2022/02/21 08:59:24;;;;;;;;;26.25;20.00;;;;;;;;5061041;28;51162;-54
2022/02/21 09:02:09;;;;;;;;;25.00;19.00;;;;;;;;5051900;28;51195;-52
2022/02/21 09:04:53;;;;;;;;;19.75;16.00;;;;;;;;5040718;28;51167;-57
2022/02/21 09:07:38;;;;;;;;;19.25;16.75;;;;;;;;5027200;28;51785;-55
2022/02/21 09:10:22;;;;;;;;;20.00;14.00;;;;;;;;5041690;28;51322;-52
2022/02/21 09:13:07;;;;;;;;;19.50;15.25;;;;;;;;5040676;28;51127;-52
2022/02/21 09:15:51;;;;;;;;;15.50;6.00;;;;;;;;5040717;28;51171;-55
2022/02/21 09:18:35;;;;;;;;;20.00;14.25;;;;;;;;5057428;28;51024;-56
2022/02/21 09:21:20;;;;;;;;;12.75;12.50;;;;;;;;5052209;28;51266;-51
2022/02/21 09:24:04;;;;;;;;;15.25;13.50;;;;;;;;5057045;28;51536;-56
2022/02/21 09:26:49;;;;;;;;;17.75;15.25;;;;;;;;5051942;28;51088;-55
2022/02/21 09:29:35;;;;;;;;;16.00;13.50;;;;;;;;5028983;28;51153;-54
2022/02/21 09:32:23;;;;;;;;;19.50;16.00;;;;;;;;5023311;28;51406;-56
2022/02/21 09:41:08;;;;;;;;;23.50;17.00;;;;;;;;4813993;29;51360;-52
2022/02/21 09:43:53;;;;;;;;;17.00;14.25;;;;;;;;4845405;29;51195;-55
2022/02/21 09:46:38;;;;;;;;;20.00;15.75;;;;;;;;4844207;29;51370;-47
2022/02/21 09:49:23;;;;;;;;;20.75;15.00;;;;;;;;4846615;29;51127;-48
2022/02/21 09:52:07;;;;;;;;;15.50;14.50;;;;;;;;4844198;29;51376;-50
2022/02/21 09:54:51;;;;;;;;;19.00;16.00;;;;;;;;4844094;29;51484;-51
2022/02/21 09:57:35;;;;;;;;;15.00;15.00;;;;;;;;4844188;29;51230;-51
2022/02/21 10:00:19;;;;;;;;;17.25;13.00;;;;;;;;4850204;29;51526;-52
2022/02/21 10:03:03;;;;;;;;;14.75;14.00;;;;;;;;4844012;29;51084;-52
2022/02/21 10:05:50;;;;;;;;;20.75;17.00;;;;;;;;4845847;29;51532;-56
2022/02/21 10:08:34;;;;;;;;;18.00;15.00;;;;;;;;4847549;29;51211;-50
2022/02/21 10:11:29;;;;;;;;;16.50;11.50;;;;;;;;4845523;29;51251;-52
2022/02/21 10:14:14;;;;;;;;;12.50;12.25;;;;;;;;4842501;29;51328;-50
2022/02/21 10:17:00;;;;;;;;;15.50;13.25;;;;;;;;4864465;28;51519;-52
2022/02/21 10:19:44;;;;;;;;;16.25;11.75;;;;;;;;5010686;28;51195;-50
2022/02/21 10:22:32;;;;;;;;;13.50;10.00;;;;;;;;5013660;28;51205;-48
2022/02/21 10:25:21;;;;;;;;;18.25;14.50;;;;;;;;5016586;28;51161;-53
2022/02/21 10:28:05;;;;;;;;;18.75;17.50;;;;;;;;5014926;28;51200;-48
2022/02/21 10:31:10;;;;;;;;;20.25;16.00;;;;;;;;5015356;28;51235;-53
2022/02/21 10:34:02;;;;;;;;;18.00;15.00;;;;;;;;5018121;28;51168;-51
2022/02/21 10:36:47;;;;;;;;;16.50;14.25;;;;;;;;5018137;28;51114;-52
2022/02/21 10:39:31;;;;;;;;;15.25;15.25;;;;;;;;5015977;28;51148;-59
2022/02/21 10:42:26;;;;;;;;;17.25;15.25;;;;;;;;5015593;28;51293;-57
2022/02/21 10:45:15;;;;;;;;;18.75;15.50;;;;;;;;5017124;28;51204;-60
2022/02/21 10:48:00;;;;;;;;;21.25;18.25;;;;;;;;5017691;28;51074;-58
2022/02/21 10:50:57;;;;;;;;;19.50;14.75;;;;;;;;5015964;28;51526;-60
2022/02/21 10:53:44;;;;;;;;;20.00;13.75;;;;;;;;5016760;28;51114;-60
2022/02/21 10:56:40;;;;;;;;;13.75;13.50;;;;;;;;5017746;28;51018;-59
2022/02/21 10:59:27;;;;;;;;;16.50;14.25;;;;;;;;5016725;28;51215;-58
2022/02/21 11:02:15;;;;;;;;;11.00;11.00;;;;;;;;5017008;28;51513;-61
2022/02/21 11:05:00;;;;;;;;;16.00;11.25;;;;;;;;5016151;28;51158;-61
2022/02/21 11:07:46;;;;;;;;;13.00;12.25;;;;;;;;5016501;28;51061;-63
2022/02/21 11:10:31;;;;;;;;;16.75;13.75;;;;;;;;5017569;28;51232;-63
2022/02/21 11:13:16;;;;;;;;;16.25;12.50;;;;;;;;5017161;28;51263;-58
2022/02/21 11:16:02;;;;;;;;;10.75;10.50;;;;;;;;5017760;28;51146;-59
2022/02/21 11:18:47;;;;;;;;;13.25;12.25;;;;;;;;5017122;28;51135;-60
2022/02/21 11:21:33;;;;;;;;;12.50;9.75;;;;;;;;5017106;28;51144;-58
2022/02/21 11:24:19;;;;;;;;;17.50;14.00;;;;;;;;5016932;28;51097;-63
2022/02/21 11:27:11;;;;;;;;;12.25;11.25;;;;;;;;5016739;28;51320;-61
2022/02/21 11:30:04;;;;;;;;;15.00;13.75;;;;;;;;5017908;28;51151;-59
2022/02/21 11:33:02;;;;;;;;;15.25;12.75;;;;;;;;5017866;28;51030;-59
2022/02/21 11:36:04;;;;;;;;;14.25;11.75;;;;;;;;5017760;28;51152;-61
2022/02/21 11:38:48;;;;;;;;;16.25;14.25;;;;;;;;5017323;28;51228;-57
2022/02/21 11:41:36;;;;;;;;;15.50;13.75;;;;;;;;5001349;28;51184;-62
2022/02/21 11:44:21;;;;;;;;;11.25;10.75;;;;;;;;5018055;28;51504;-60
2022/02/21 11:47:09;;;;;;;;;16.50;13.00;;;;;;;;5015944;28;51231;-59
2022/02/21 11:49:57;;;;;;;;;14.25;13.00;;;;;;;;5016768;28;51151;-59
2022/02/21 11:52:48;;;;;;;;;20.50;16.75;;;;;;;;5017637;28;51216;-60
2022/02/21 11:55:36;;;;;;;;;18.50;17.00;;;;;;;;5018777;28;51129;-61
2022/02/21 11:58:23;;;;;;;;;13.25;10.75;;;;;;;;5013043;28;51171;-60
2022/02/21 12:01:11;;;;;;;;;13.75;12.75;;;;;;;;5017000;28;51504;-60
2022/02/21 12:04:15;;;;;;;;;13.25;12.25;;;;;;;;5019281;28;51185;-59
2022/02/21 12:07:00;;;;;;;;;14.75;13.50;;;;;;;;5021428;28;51424;-60
2022/02/21 12:10:03;;;;;;;;;21.75;17.50;;;;;;;;5022056;28;51536;-60
2022/02/21 12:12:55;;;;;;;;;17.75;15.00;;;;;;;;5020992;28;51077;-62
2022/02/21 12:15:59;;;;;;;;;14.25;13.50;;;;;;;;5022189;28;51054;-60
2022/02/21 12:18:44;;;;;;;;;14.75;13.25;;;;;;;;5021437;28;51528;-60
2022/02/21 12:21:29;;;;;;;;;18.25;14.00;;;;;;;;5018256;28;51134;-58
2022/02/21 12:24:13;;;;;;;;;13.25;12.25;;;;;;;;5021728;28;51158;-60
2022/02/21 12:27:24;;;;;;;;;13.25;11.25;;;;;;;;5021712;28;51195;-59
2022/02/21 12:30:09;;;;;;;;;10.75;10.75;;;;;;;;5021242;28;52097;-59
2022/02/21 12:32:53;;;;;;;;;14.25;10.50;;;;;;;;5020884;28;51492;-59
2022/02/21 12:35:44;;;;;;;;;15.50;13.25;;;;;;;;5015569;28;51746;-59
2022/02/21 12:38:32;;;;;;;;;11.00;10.25;;;;;;;;5016262;28;51652;-61
2022/02/21 12:41:16;;;;;;;;;14.00;11.75;;;;;;;;5019126;28;51103;-61
2022/02/21 12:44:02;;;;;;;;;19.00;17.50;;;;;;;;5020051;28;51263;-61
2022/02/21 12:46:51;;;;;;;;;16.25;12.75;;;;;;;;5019433;28;50943;-59
2022/02/21 12:49:48;;;;;;;;;14.50;11.75;;;;;;;;5014939;28;51423;-59
2022/02/21 12:52:32;;;;;;;;;12.50;10.25;;;;;;;;5016348;28;51303;-61
2022/02/21 12:55:17;;;;;;;;;13.50;12.75;;;;;;;;5016124;28;51053;-62
2022/02/21 12:58:08;;;;;;;;;12.50;10.25;;;;;;;;5020143;28;51178;-59
2022/02/21 13:00:53;;;;;;;;;12.50;12.00;;;;;;;;5020243;28;51515;-59
2022/02/21 13:03:37;;;;;;;;;14.50;11.75;;;;;;;;5019760;28;51152;-60
2022/02/21 13:06:22;;;;;;;;;16.00;13.50;;;;;;;;5020449;28;51216;-60
2022/02/21 13:09:07;;;;;;;;;16.75;12.50;;;;;;;;5019714;28;51400;-59
2022/02/21 13:11:55;;;;;;;;;15.75;14.00;;;;;;;;5019710;28;51145;-58
2022/02/21 13:14:39;;;;;;;;;15.25;13.75;;;;;;;;5017887;28;51414;-59
2022/02/21 13:17:24;;;;;;;;;13.50;13.50;;;;;;;;5017252;28;51169;-60
2022/02/21 13:20:11;;;;;;;;;16.25;13.50;;;;;;;;5020783;28;51131;-60
2022/02/21 13:23:00;;;;;;;;;17.00;13.75;;;;;;;;5017570;28;51188;-61
2022/02/21 13:25:44;;;;;;;;;17.00;16.00;;;;;;;;5016288;28;51621;-61
2022/02/21 13:28:29;;;;;;;;;19.75;15.25;;;;;;;;5018763;28;51336;-61
2022/02/21 13:31:13;;;;;;;;;17.50;12.75;;;;;;;;5016641;28;51152;-59
2022/02/21 13:33:58;;;;;;;;;17.25;15.25;;;;;;;;5015754;28;51339;-61
2022/02/21 13:36:44;;;;;;;;;20.75;13.50;;;;;;;;5019015;28;52369;-60
2022/02/21 13:39:30;;;;;;;;;13.75;10.50;;;;;;;;5018272;28;51595;-59
2022/02/21 13:42:19;;;;;;;;;12.00;10.25;;;;;;;;5018151;28;51107;-58
2022/02/21 13:45:32;;;;;;;;;15.50;12.00;;;;;;;;5016304;28;51288;-61
2022/02/21 13:48:23;;;;;;;;;21.75;19.75;;;;;;;;5013224;28;51256;-60
2022/02/21 13:51:15;;;;;;;;;15.50;12.00;;;;;;;;5017929;28;51176;-60
2022/02/21 13:54:00;;;;;;;;;18.50;14.50;;;;;;;;5017725;28;51033;-61
2022/02/21 13:57:04;;;;;;;;;13.75;11.25;;;;;;;;5014300;28;51195;-60
2022/02/21 13:59:49;;;;;;;;;14.50;12.50;;;;;;;;5018036;28;51538;-58
2022/02/21 14:02:34;;;;;;;;;12.25;12.25;;;;;;;;5017699;28;51172;-61
2022/02/21 14:05:18;;;;;;;;;19.50;12.50;;;;;;;;5017962;28;51446;-60
2022/02/21 14:08:03;;;;;;;;;16.75;11.75;;;;;;;;5015793;28;51538;-57
2022/02/21 14:10:57;;;;;;;;;14.00;13.50;;;;;;;;5017325;28;51089;-59
2022/02/21 14:13:41;;;;;;;;;16.50;12.75;;;;;;;;5017291;28;51150;-58
2022/02/21 14:16:28;;;;;;;;;18.75;14.00;;;;;;;;5016982;28;51499;-59
2022/02/21 14:19:17;;;;;;;;;14.50;14.00;;;;;;;;5016100;28;51179;-59
2022/02/21 14:22:01;;;;;;;;;15.75;12.50;;;;;;;;5018158;28;51148;-60
2022/02/21 14:24:46;;;;;;;;;16.00;12.75;;;;;;;;5015354;28;51455;-59
2022/02/21 14:27:33;;;;;;;;;12.25;11.00;;;;;;;;5020677;28;51182;-58
2022/02/21 14:30:17;;;;;;;;;17.75;14.25;;;;;;;;5016989;28;51215;-58
2022/02/21 14:33:02;;;;;;;;;20.00;13.50;;;;;;;;5017419;28;51095;-58
2022/02/21 14:35:46;;;;;;;;;18.00;13.75;;;;;;;;5018369;28;51123;-58
2022/02/21 14:38:31;;;;;;;;;16.25;12.00;;;;;;;;5018090;28;51139;-57
2022/02/21 14:41:15;;;;;;;;;10.75;10.75;;;;;;;;5016861;28;51087;-57
2022/02/21 14:44:02;;;;;;;;;15.25;13.50;;;;;;;;5017884;28;51269;-58
2022/02/21 14:46:46;;;;;;;;;14.50;10.50;;;;;;;;5017837;28;51053;-59
2022/02/21 14:49:33;;;;;;;;;18.75;13.75;;;;;;;;5018271;28;51050;-58
2022/02/21 14:52:17;;;;;;;;;14.25;13.00;;;;;;;;5013831;28;51241;-57
2022/02/21 14:55:01;;;;;;;;;14.00;12.25;;;;;;;;5000392;28;51429;-57
2022/02/21 14:57:46;;;;;;;;;17.25;14.00;;;;;;;;5017210;28;51190;-57
2022/02/21 15:00:30;;;;;;;;;16.50;14.25;;;;;;;;5020551;28;51029;-57
2022/02/21 15:03:15;;;;;;;;;16.00;12.50;;;;;;;;5019507;28;51488;-58
2022/02/21 15:05:59;;;;;;;;;16.00;13.25;;;;;;;;5015289;28;51552;-57
2022/02/21 15:08:45;;;;;;;;;16.00;13.50;;;;;;;;5017535;28;51179;-58
2022/02/21 15:11:29;;;;;;;;;13.75;13.25;;;;;;;;5016453;28;51067;-58
2022/02/21 15:14:13;;;;;;;;;14.50;12.00;;;;;;;;5017650;28;51458;-57
2022/02/21 15:16:58;;;;;;;;;16.00;12.50;;;;;;;;5015093;28;51205;-58
2022/02/21 15:19:42;;;;;;;;;19.00;13.75;;;;;;;;5016335;28;51478;-58
2022/02/21 15:22:27;;;;;;;;;14.25;12.00;;;;;;;;5017241;28;51183;-58
2022/02/21 15:25:11;;;;;;;;;20.50;13.50;;;;;;;;5015164;28;51109;-58
2022/02/21 15:27:56;;;;;;;;;15.50;14.50;;;;;;;;5017230;28;52381;-58
2022/02/21 15:30:41;;;;;;;;;13.50;9.00;;;;;;;;5015860;28;51548;-58
2022/02/21 15:33:26;;;;;;;;;18.25;14.00;;;;;;;;5013617;28;51097;-58
2022/02/21 15:36:12;;;;;;;;;13.00;10.75;;;;;;;;5012428;28;51161;-56
2022/02/21 15:38:58;;;;;;;;;15.50;10.00;;;;;;;;5000058;28;51488;-58
2022/02/21 15:41:45;;;;;;;;;15.25;10.50;;;;;;;;4993836;28;51478;-57
2022/02/21 15:44:31;;;;;;;;;13.75;11.50;;;;;;;;4994875;28;51607;-56
2022/02/21 15:47:16;;;;;;;;;17.25;12.75;;;;;;;;4995238;28;51218;-57
2022/02/21 15:50:01;;;;;;;;;14.00;12.25;;;;;;;;4998830;28;51151;-57
2022/02/21 15:52:46;;;;;;;;;20.75;15.00;;;;;;;;5005989;28;51253;-57
2022/02/21 15:59:16;;;;;;;;;16.75;13.00;;;;;;;;4856727;29;51168;-53
2022/02/21 16:02:00;;;;;;;;;15.75;11.75;;;;;;;;4844776;29;51137;-50
2022/02/21 16:04:45;;;;;;;;;19.50;14.50;;;;;;;;4863619;29;51473;-54
2022/02/21 16:07:29;;;;;;;;;14.75;12.25;;;;;;;;4863058;29;51203;-49
2022/02/21 16:10:13;;;;;;;;;14.75;12.75;;;;;;;;4891893;28;51489;-50
2022/02/21 16:12:57;;;;;;;;;19.50;11.25;;;;;;;;4900845;28;51123;-50